sensor_id;sensor_type;location;lat;lon;timestamp;temperature;humidity
39657;DHT22;25337;51.478;7.510;2024-02-16T00:01:37;13.20;99.90
39657;DHT22;25337;51.478;7.510;2024-02-16T00:04:02;13.20;99.90
39657;DHT22;25337;51.478;7.510;2024-02-16T00:06:28;13.20;99.90
39657;DHT22;25337;51.478;7.510;2024-02-16T00:08:53;13.20;99.90
39657;DHT22;25337;51.478;7.510;2024-02-16T00:11:19;13.30;99.90
39657;DHT22;25337;51.478;7.510;2024-02-16T00:13:48;13.20;99.90
39657;DHT22;25337;51.478;7.510;2024-02-16T00:16:13;13.20;99.90
39657;DHT22;25337;51.478;7.510;2024-02-16T00:18:39;13.20;99.90
39657;DHT22;25337;51.478;7.510;2024-02-16T00:21:05;13.30;99.90
39657;DHT22;25337;51.478;7.510;2024-02-16T00:23:30;13.20;99.90
39657;DHT22;25337;51.478;7.510;2024-02-16T00:25:56;13.20;99.90
39657;DHT22;25337;51.478;7.510;2024-02-16T00:28:22;13.30;99.90
39657;DHT22;25337;51.478;7.510;2024-02-16T00:30:47;13.30;99.90
39657;DHT22;25337;51.478;7.510;2024-02-16T00:33:15;13.30;99.90
39657;DHT22;25337;51.478;7.510;2024-02-16T00:35:43;13.30;99.90
39657;DHT22;25337;51.478;7.510;2024-02-16T00:38:08;13.30;99.90
39657;DHT22;25337;51.478;7.510;2024-02-16T00:40:34;13.20;99.90
39657;DHT22;25337;51.478;7.510;2024-02-16T00:42:59;13.20;99.90
39657;DHT22;25337;51.478;7.510;2024-02-16T00:45:28;13.20;99.90
39657;DHT22;25337;51.478;7.510;2024-02-16T00:47:54;13.30;99.90
39657;DHT22;25337;51.478;7.510;2024-02-16T00:50:20;13.20;99.90
39657;DHT22;25337;51.478;7.510;2024-02-16T00:52:45;13.10;99.90
39657;DHT22;25337;51.478;7.510;2024-02-16T00:55:11;13.20;99.90
39657;DHT22;25337;51.478;7.510;2024-02-16T00:57:41;13.20;99.90
39657;DHT22;25337;51.478;7.510;2024-02-16T01:00:07;13.10;99.90
39657;DHT22;25337;51.478;7.510;2024-02-16T01:02:34;13.10;99.90
39657;DHT22;25337;51.478;7.510;2024-02-16T01:05:00;13.10;99.90
39657;DHT22;25337;51.478;7.510;2024-02-16T01:07:28;13.10;99.90
39657;DHT22;25337;51.478;7.510;2024-02-16T01:09:53;13.10;99.90
39657;DHT22;25337;51.478;7.510;2024-02-16T01:12:20;13.10;99.90
39657;DHT22;25337;51.478;7.510;2024-02-16T01:14:45;13.10;99.90
39657;DHT22;25337;51.478;7.510;2024-02-16T01:17:11;13.10;99.90
39657;DHT22;25337;51.478;7.510;2024-02-16T01:19:36;13.20;99.90
39657;DHT22;25337;51.478;7.510;2024-02-16T01:22:02;13.20;99.90
39657;DHT22;25337;51.478;7.510;2024-02-16T01:24:28;13.20;99.90
39657;DHT22;25337;51.478;7.510;2024-02-16T01:26:58;13.20;99.90
39657;DHT22;25337;51.478;7.510;2024-02-16T01:29:23;13.30;99.90
39657;DHT22;25337;51.478;7.510;2024-02-16T01:31:49;13.20;99.90
39657;DHT22;25337;51.478;7.510;2024-02-16T01:34:15;13.30;99.90
39657;DHT22;25337;51.478;7.510;2024-02-16T01:36:40;13.20;99.90
39657;DHT22;25337;51.478;7.510;2024-02-16T01:39:06;13.20;99.90
39657;DHT22;25337;51.478;7.510;2024-02-16T01:41:33;13.20;99.90
39657;DHT22;25337;51.478;7.510;2024-02-16T01:43:58;13.30;99.90
39657;DHT22;25337;51.478;7.510;2024-02-16T01:46:24;13.20;99.90
39657;DHT22;25337;51.478;7.510;2024-02-16T01:48:53;13.20;99.90
39657;DHT22;25337;51.478;7.510;2024-02-16T01:51:22;13.20;99.90
39657;DHT22;25337;51.478;7.510;2024-02-16T01:53:48;13.20;99.90
39657;DHT22;25337;51.478;7.510;2024-02-16T01:56:16;13.20;99.90
39657;DHT22;25337;51.478;7.510;2024-02-16T01:58:42;13.20;99.90
39657;DHT22;25337;51.478;7.510;2024-02-16T02:01:08;13.20;99.90
39657;DHT22;25337;51.478;7.510;2024-02-16T02:03:33;13.20;99.90
39657;DHT22;25337;51.478;7.510;2024-02-16T02:06:00;13.20;99.90
39657;DHT22;25337;51.478;7.510;2024-02-16T02:08:28;13.20;99.90
39657;DHT22;25337;51.478;7.510;2024-02-16T02:10:54;13.10;99.90
39657;DHT22;25337;51.478;7.510;2024-02-16T02:13:19;13.10;99.90
39657;DHT22;25337;51.478;7.510;2024-02-16T02:15:47;13.10;99.90
39657;DHT22;25337;51.478;7.510;2024-02-16T02:18:16;13.10;99.90
39657;DHT22;25337;51.478;7.510;2024-02-16T02:20:44;13.10;99.90
39657;DHT22;25337;51.478;7.510;2024-02-16T02:23:10;13.10;99.90
39657;DHT22;25337;51.478;7.510;2024-02-16T02:25:35;13.10;99.90
39657;DHT22;25337;51.478;7.510;2024-02-16T02:28:05;13.10;99.90
39657;DHT22;25337;51.478;7.510;2024-02-16T02:30:31;13.10;99.90
39657;DHT22;25337;51.478;7.510;2024-02-16T02:32:57;13.10;99.90
39657;DHT22;25337;51.478;7.510;2024-02-16T02:35:22;13.10;99.90
39657;DHT22;25337;51.478;7.510;2024-02-16T02:37:51;13.20;99.90
39657;DHT22;25337;51.478;7.510;2024-02-16T02:40:17;13.10;99.90
39657;DHT22;25337;51.478;7.510;2024-02-16T02:42:45;13.10;99.90
39657;DHT22;25337;51.478;7.510;2024-02-16T02:45:11;13.10;99.90
39657;DHT22;25337;51.478;7.510;2024-02-16T02:47:36;13.10;99.90
39657;DHT22;25337;51.478;7.510;2024-02-16T02:50:02;13.10;99.90
39657;DHT22;25337;51.478;7.510;2024-02-16T02:52:28;13.20;99.90
39657;DHT22;25337;51.478;7.510;2024-02-16T02:54:56;13.20;99.90
39657;DHT22;25337;51.478;7.510;2024-02-16T02:57:25;13.20;99.90
39657;DHT22;25337;51.478;7.510;2024-02-16T02:59:51;13.10;99.90
39657;DHT22;25337;51.478;7.510;2024-02-16T03:02:19;13.10;99.90
39657;DHT22;25337;51.478;7.510;2024-02-16T03:04:44;13.10;99.90
39657;DHT22;25337;51.478;7.510;2024-02-16T03:07:13;13.10;99.90
39657;DHT22;25337;51.478;7.510;2024-02-16T03:09:40;13.10;99.90
39657;DHT22;25337;51.478;7.510;2024-02-16T03:12:07;13.10;99.90
39657;DHT22;25337;51.478;7.510;2024-02-16T03:14:33;13.10;99.90
39657;DHT22;25337;51.478;7.510;2024-02-16T03:16:59;13.10;99.90
39657;DHT22;25337;51.478;7.510;2024-02-16T03:19:24;13.10;99.90
39657;DHT22;25337;51.478;7.510;2024-02-16T03:21:50;13.20;99.90
39657;DHT22;25337;51.478;7.510;2024-02-16T03:24:16;13.20;99.90
39657;DHT22;25337;51.478;7.510;2024-02-16T03:26:41;13.20;99.90
39657;DHT22;25337;51.478;7.510;2024-02-16T03:29:10;13.20;99.90
39657;DHT22;25337;51.478;7.510;2024-02-16T03:31:35;13.20;99.90
39657;DHT22;25337;51.478;7.510;2024-02-16T03:34:01;13.10;99.90
39657;DHT22;25337;51.478;7.510;2024-02-16T03:36:26;13.10;99.90
39657;DHT22;25337;51.478;7.510;2024-02-16T03:38:52;13.10;99.90
39657;DHT22;25337;51.478;7.510;2024-02-16T03:41:22;13.00;99.90
39657;DHT22;25337;51.478;7.510;2024-02-16T03:43:49;13.00;99.90
39657;DHT22;25337;51.478;7.510;2024-02-16T03:46:15;13.00;99.90
39657;DHT22;25337;51.478;7.510;2024-02-16T03:48:41;13.00;99.90
39657;DHT22;25337;51.478;7.510;2024-02-16T03:51:07;13.00;99.90
39657;DHT22;25337;51.478;7.510;2024-02-16T03:53:33;12.90;99.90
39657;DHT22;25337;51.478;7.510;2024-02-16T03:55:59;12.90;99.90
39657;DHT22;25337;51.478;7.510;2024-02-16T03:58:25;13.00;99.90
39657;DHT22;25337;51.478;7.510;2024-02-16T04:00:51;13.00;99.90
39657;DHT22;25337;51.478;7.510;2024-02-16T04:03:18;13.00;99.90
39657;DHT22;25337;51.478;7.510;2024-02-16T04:05:44;13.00;99.90
39657;DHT22;25337;51.478;7.510;2024-02-16T04:08:09;13.00;99.90
39657;DHT22;25337;51.478;7.510;2024-02-16T04:10:35;13.00;99.90
39657;DHT22;25337;51.478;7.510;2024-02-16T04:13:02;13.00;99.90
39657;DHT22;25337;51.478;7.510;2024-02-16T04:15:28;12.90;99.90
39657;DHT22;25337;51.478;7.510;2024-02-16T04:17:53;12.90;99.90
39657;DHT22;25337;51.478;7.510;2024-02-16T04:20:19;12.90;99.90
39657;DHT22;25337;51.478;7.510;2024-02-16T04:22:45;12.90;99.90
39657;DHT22;25337;51.478;7.510;2024-02-16T04:25:11;12.90;99.90
39657;DHT22;25337;51.478;7.510;2024-02-16T04:27:37;13.00;99.90
39657;DHT22;25337;51.478;7.510;2024-02-16T04:30:03;12.90;99.90
39657;DHT22;25337;51.478;7.510;2024-02-16T04:32:30;12.90;99.90
39657;DHT22;25337;51.478;7.510;2024-02-16T04:34:56;12.90;99.90
39657;DHT22;25337;51.478;7.510;2024-02-16T04:37:22;12.90;99.90
39657;DHT22;25337;51.478;7.510;2024-02-16T04:39:49;13.00;99.90
39657;DHT22;25337;51.478;7.510;2024-02-16T04:42:14;13.00;99.90
39657;DHT22;25337;51.478;7.510;2024-02-16T04:44:40;13.00;99.90
39657;DHT22;25337;51.478;7.510;2024-02-16T04:47:05;13.00;99.90
39657;DHT22;25337;51.478;7.510;2024-02-16T04:49:31;13.00;99.90
39657;DHT22;25337;51.478;7.510;2024-02-16T04:51:57;13.00;99.90
39657;DHT22;25337;51.478;7.510;2024-02-16T04:54:23;13.00;99.90
39657;DHT22;25337;51.478;7.510;2024-02-16T04:56:50;13.00;99.90
39657;DHT22;25337;51.478;7.510;2024-02-16T04:59:16;13.10;99.90
39657;DHT22;25337;51.478;7.510;2024-02-16T05:01:45;13.10;99.90
39657;DHT22;25337;51.478;7.510;2024-02-16T05:04:12;13.10;99.90
39657;DHT22;25337;51.478;7.510;2024-02-16T05:06:45;13.00;99.90
39657;DHT22;25337;51.478;7.510;2024-02-16T05:09:13;13.00;99.90
39657;DHT22;25337;51.478;7.510;2024-02-16T05:11:42;13.00;99.90
39657;DHT22;25337;51.478;7.510;2024-02-16T05:14:08;13.00;99.90
39657;DHT22;25337;51.478;7.510;2024-02-16T05:16:37;13.00;99.90
39657;DHT22;25337;51.478;7.510;2024-02-16T05:19:03;13.10;99.90
39657;DHT22;25337;51.478;7.510;2024-02-16T05:21:28;13.00;99.90
39657;DHT22;25337;51.478;7.510;2024-02-16T05:23:54;13.00;99.90
39657;DHT22;25337;51.478;7.510;2024-02-16T05:26:20;13.10;99.90
39657;DHT22;25337;51.478;7.510;2024-02-16T05:28:47;13.10;99.90
39657;DHT22;25337;51.478;7.510;2024-02-16T05:31:17;13.10;99.90
39657;DHT22;25337;51.478;7.510;2024-02-16T05:33:46;13.10;99.90
39657;DHT22;25337;51.478;7.510;2024-02-16T05:36:11;13.10;99.90
39657;DHT22;25337;51.478;7.510;2024-02-16T05:38:38;13.10;99.90
39657;DHT22;25337;51.478;7.510;2024-02-16T05:41:07;13.00;99.90
39657;DHT22;25337;51.478;7.510;2024-02-16T05:43:34;13.10;99.90
39657;DHT22;25337;51.478;7.510;2024-02-16T05:45:59;13.00;99.90
39657;DHT22;25337;51.478;7.510;2024-02-16T05:48:25;13.00;99.90
39657;DHT22;25337;51.478;7.510;2024-02-16T05:50:59;13.10;99.90
39657;DHT22;25337;51.478;7.510;2024-02-16T05:53:26;13.10;99.90
39657;DHT22;25337;51.478;7.510;2024-02-16T05:55:53;13.10;99.90
39657;DHT22;25337;51.478;7.510;2024-02-16T05:58:18;13.10;99.90
39657;DHT22;25337;51.478;7.510;2024-02-16T06:00:44;13.20;99.90
39657;DHT22;25337;51.478;7.510;2024-02-16T06:03:12;13.20;99.90
39657;DHT22;25337;51.478;7.510;2024-02-16T06:05:38;13.20;99.90
39657;DHT22;25337;51.478;7.510;2024-02-16T06:08:06;13.20;99.90
39657;DHT22;25337;51.478;7.510;2024-02-16T06:10:33;13.20;99.90
39657;DHT22;25337;51.478;7.510;2024-02-16T06:12:58;13.10;99.90
39657;DHT22;25337;51.478;7.510;2024-02-16T06:15:24;13.20;99.90
39657;DHT22;25337;51.478;7.510;2024-02-16T06:17:50;13.30;99.90
39657;DHT22;25337;51.478;7.510;2024-02-16T06:20:16;13.20;99.90
39657;DHT22;25337;51.478;7.510;2024-02-16T06:22:42;13.30;99.90
39657;DHT22;25337;51.478;7.510;2024-02-16T06:25:09;13.30;99.90
39657;DHT22;25337;51.478;7.510;2024-02-16T06:27:35;13.30;99.90
39657;DHT22;25337;51.478;7.510;2024-02-16T06:30:02;13.30;99.90
39657;DHT22;25337;51.478;7.510;2024-02-16T06:32:29;13.30;99.90
39657;DHT22;25337;51.478;7.510;2024-02-16T06:34:56;13.30;99.90
39657;DHT22;25337;51.478;7.510;2024-02-16T06:37:25;13.20;99.90
39657;DHT22;25337;51.478;7.510;2024-02-16T06:39:50;13.10;99.90
39657;DHT22;25337;51.478;7.510;2024-02-16T06:42:16;13.10;99.90
39657;DHT22;25337;51.478;7.510;2024-02-16T06:44:45;13.10;99.90
39657;DHT22;25337;51.478;7.510;2024-02-16T06:47:10;13.00;99.90
39657;DHT22;25337;51.478;7.510;2024-02-16T06:49:36;13.00;99.90
39657;DHT22;25337;51.478;7.510;2024-02-16T06:52:02;13.00;99.90
39657;DHT22;25337;51.478;7.510;2024-02-16T06:54:28;13.00;99.90
39657;DHT22;25337;51.478;7.510;2024-02-16T06:56:53;12.90;99.90
39657;DHT22;25337;51.478;7.510;2024-02-16T06:59:19;13.00;99.90
39657;DHT22;25337;51.478;7.510;2024-02-16T07:01:45;13.00;99.90
39657;DHT22;25337;51.478;7.510;2024-02-16T07:04:11;12.90;99.90
39657;DHT22;25337;51.478;7.510;2024-02-16T07:06:36;12.90;99.90
39657;DHT22;25337;51.478;7.510;2024-02-16T07:09:02;12.90;99.90
39657;DHT22;25337;51.478;7.510;2024-02-16T07:11:30;12.90;99.90
39657;DHT22;25337;51.478;7.510;2024-02-16T07:13:56;12.90;99.90
39657;DHT22;25337;51.478;7.510;2024-02-16T07:16:22;12.90;99.90
39657;DHT22;25337;51.478;7.510;2024-02-16T07:18:47;12.80;99.90
39657;DHT22;25337;51.478;7.510;2024-02-16T07:21:13;12.90;99.90
39657;DHT22;25337;51.478;7.510;2024-02-16T07:23:38;12.90;99.90
39657;DHT22;25337;51.478;7.510;2024-02-16T07:26:07;13.00;99.90
39657;DHT22;25337;51.478;7.510;2024-02-16T07:28:33;13.10;99.90
39657;DHT22;25337;51.478;7.510;2024-02-16T07:30:58;13.00;99.90
39657;DHT22;25337;51.478;7.510;2024-02-16T07:33:24;13.10;99.90
39657;DHT22;25337;51.478;7.510;2024-02-16T07:35:51;13.10;99.90
39657;DHT22;25337;51.478;7.510;2024-02-16T07:38:17;13.10;99.90
39657;DHT22;25337;51.478;7.510;2024-02-16T07:40:43;13.10;99.90
39657;DHT22;25337;51.478;7.510;2024-02-16T07:43:17;13.10;99.90
39657;DHT22;25337;51.478;7.510;2024-02-16T07:45:43;13.00;99.90
39657;DHT22;25337;51.478;7.510;2024-02-16T07:48:09;13.00;99.90
39657;DHT22;25337;51.478;7.510;2024-02-16T07:50:35;13.00;99.90
39657;DHT22;25337;51.478;7.510;2024-02-16T07:53:00;13.00;99.90
39657;DHT22;25337;51.478;7.510;2024-02-16T07:55:26;12.90;99.90
39657;DHT22;25337;51.478;7.510;2024-02-16T07:57:52;12.90;99.90
39657;DHT22;25337;51.478;7.510;2024-02-16T08:00:18;12.90;99.90
39657;DHT22;25337;51.478;7.510;2024-02-16T08:02:44;13.00;99.90
39657;DHT22;25337;51.478;7.510;2024-02-16T08:05:12;13.10;99.90
39657;DHT22;25337;51.478;7.510;2024-02-16T08:07:41;13.10;99.90
39657;DHT22;25337;51.478;7.510;2024-02-16T08:10:08;13.20;99.90
39657;DHT22;25337;51.478;7.510;2024-02-16T08:12:34;13.20;99.90
39657;DHT22;25337;51.478;7.510;2024-02-16T08:15:05;13.30;99.90
39657;DHT22;25337;51.478;7.510;2024-02-16T08:17:33;13.40;99.90
39657;DHT22;25337;51.478;7.510;2024-02-16T08:19:59;13.40;99.90
39657;DHT22;25337;51.478;7.510;2024-02-16T08:22:25;13.50;99.90
39657;DHT22;25337;51.478;7.510;2024-02-16T08:24:50;13.60;99.90
39657;DHT22;25337;51.478;7.510;2024-02-16T08:27:17;13.60;99.90
39657;DHT22;25337;51.478;7.510;2024-02-16T08:29:43;13.70;99.90
39657;DHT22;25337;51.478;7.510;2024-02-16T08:32:09;13.80;99.90
39657;DHT22;25337;51.478;7.510;2024-02-16T08:34:35;13.90;99.90
39657;DHT22;25337;51.478;7.510;2024-02-16T08:37:03;14.00;99.90
39657;DHT22;25337;51.478;7.510;2024-02-16T08:39:29;14.10;99.90
39657;DHT22;25337;51.478;7.510;2024-02-16T08:41:56;14.20;99.90
39657;DHT22;25337;51.478;7.510;2024-02-16T08:44:22;14.30;99.90
39657;DHT22;25337;51.478;7.510;2024-02-16T08:46:47;14.40;99.90
39657;DHT22;25337;51.478;7.510;2024-02-16T08:49:15;14.40;99.90
39657;DHT22;25337;51.478;7.510;2024-02-16T08:51:40;14.40;99.90
39657;DHT22;25337;51.478;7.510;2024-02-16T08:54:06;14.30;99.90
39657;DHT22;25337;51.478;7.510;2024-02-16T08:56:32;14.30;99.90
39657;DHT22;25337;51.478;7.510;2024-02-16T08:59:01;14.20;99.90
39657;DHT22;25337;51.478;7.510;2024-02-16T09:01:36;14.20;99.90
39657;DHT22;25337;51.478;7.510;2024-02-16T09:04:02;14.20;99.90
39657;DHT22;25337;51.478;7.510;2024-02-16T09:06:28;14.20;99.90
39657;DHT22;25337;51.478;7.510;2024-02-16T09:08:55;14.20;99.90
39657;DHT22;25337;51.478;7.510;2024-02-16T09:11:21;14.20;99.90
39657;DHT22;25337;51.478;7.510;2024-02-16T09:13:47;14.20;99.90
39657;DHT22;25337;51.478;7.510;2024-02-16T09:16:12;14.10;99.90
39657;DHT22;25337;51.478;7.510;2024-02-16T09:18:38;14.10;99.90
39657;DHT22;25337;51.478;7.510;2024-02-16T09:21:05;14.10;99.90
39657;DHT22;25337;51.478;7.510;2024-02-16T09:23:31;14.20;99.90
39657;DHT22;25337;51.478;7.510;2024-02-16T09:25:57;14.30;99.90
39657;DHT22;25337;51.478;7.510;2024-02-16T09:28:24;14.40;99.90
39657;DHT22;25337;51.478;7.510;2024-02-16T09:30:50;14.40;99.90
39657;DHT22;25337;51.478;7.510;2024-02-16T09:33:16;14.50;99.90
39657;DHT22;25337;51.478;7.510;2024-02-16T09:35:41;14.50;99.90
39657;DHT22;25337;51.478;7.510;2024-02-16T09:38:07;14.60;99.90
39657;DHT22;25337;51.478;7.510;2024-02-16T09:40:36;14.60;99.90
39657;DHT22;25337;51.478;7.510;2024-02-16T09:43:01;14.60;99.90
39657;DHT22;25337;51.478;7.510;2024-02-16T09:45:28;14.60;99.90
39657;DHT22;25337;51.478;7.510;2024-02-16T09:47:56;14.60;99.90
39657;DHT22;25337;51.478;7.510;2024-02-16T09:50:22;14.60;99.90
39657;DHT22;25337;51.478;7.510;2024-02-16T09:52:50;14.60;99.90
39657;DHT22;25337;51.478;7.510;2024-02-16T09:55:17;14.50;99.90
39657;DHT22;25337;51.478;7.510;2024-02-16T09:57:43;14.60;99.90
39657;DHT22;25337;51.478;7.510;2024-02-16T10:00:10;14.50;99.90
39657;DHT22;25337;51.478;7.510;2024-02-16T10:02:48;14.60;99.90
39657;DHT22;25337;51.478;7.510;2024-02-16T10:05:21;14.60;99.90
39657;DHT22;25337;51.478;7.510;2024-02-16T10:07:47;14.60;99.90
39657;DHT22;25337;51.478;7.510;2024-02-16T10:10:25;14.60;99.90
39657;DHT22;25337;51.478;7.510;2024-02-16T10:13:01;14.60;99.90
39657;DHT22;25337;51.478;7.510;2024-02-16T10:15:28;14.60;99.90
39657;DHT22;25337;51.478;7.510;2024-02-16T10:18:03;14.60;99.90
39657;DHT22;25337;51.478;7.510;2024-02-16T10:20:30;14.70;99.90
39657;DHT22;25337;51.478;7.510;2024-02-16T10:23:06;14.70;99.90
39657;DHT22;25337;51.478;7.510;2024-02-16T10:25:36;14.70;99.90
39657;DHT22;25337;51.478;7.510;2024-02-16T10:28:20;14.70;99.90
39657;DHT22;25337;51.478;7.510;2024-02-16T10:30:56;14.70;99.90
39657;DHT22;25337;51.478;7.510;2024-02-16T10:33:22;14.60;99.90
39657;DHT22;25337;51.478;7.510;2024-02-16T10:35:50;14.60;99.90
39657;DHT22;25337;51.478;7.510;2024-02-16T10:38:17;14.70;99.90
39657;DHT22;25337;51.478;7.510;2024-02-16T10:40:47;14.60;99.90
39657;DHT22;25337;51.478;7.510;2024-02-16T10:43:13;14.50;99.90
39657;DHT22;25337;51.478;7.510;2024-02-16T10:45:39;14.50;99.90
39657;DHT22;25337;51.478;7.510;2024-02-16T10:48:07;14.40;99.90
39657;DHT22;25337;51.478;7.510;2024-02-16T10:50:36;14.20;99.90
39657;DHT22;25337;51.478;7.510;2024-02-16T10:53:32;14.10;99.90
39657;DHT22;25337;51.478;7.510;2024-02-16T10:55:58;14.10;99.90
39657;DHT22;25337;51.478;7.510;2024-02-16T10:58:27;14.10;99.90
39657;DHT22;25337;51.478;7.510;2024-02-16T11:00:54;14.20;99.90
39657;DHT22;25337;51.478;7.510;2024-02-16T11:03:24;14.20;99.90
39657;DHT22;25337;51.478;7.510;2024-02-16T11:05:50;14.30;99.90
39657;DHT22;25337;51.478;7.510;2024-02-16T11:08:18;14.40;99.90
39657;DHT22;25337;51.478;7.510;2024-02-16T11:11:00;14.60;99.90
39657;DHT22;25337;51.478;7.510;2024-02-16T11:13:27;14.70;99.90
39657;DHT22;25337;51.478;7.510;2024-02-16T11:16:06;14.80;99.90
39657;DHT22;25337;51.478;7.510;2024-02-16T11:18:37;15.00;99.90
39657;DHT22;25337;51.478;7.510;2024-02-16T11:21:03;15.00;99.90
39657;DHT22;25337;51.478;7.510;2024-02-16T11:23:30;15.10;99.90
39657;DHT22;25337;51.478;7.510;2024-02-16T11:26:08;15.10;99.90
39657;DHT22;25337;51.478;7.510;2024-02-16T11:28:38;15.10;99.90
39657;DHT22;25337;51.478;7.510;2024-02-16T11:31:05;15.10;99.90
39657;DHT22;25337;51.478;7.510;2024-02-16T11:33:32;15.00;99.90
39657;DHT22;25337;51.478;7.510;2024-02-16T11:36:00;15.00;99.90
39657;DHT22;25337;51.478;7.510;2024-02-16T11:38:27;15.00;99.90
39657;DHT22;25337;51.478;7.510;2024-02-16T11:41:12;15.00;99.90
39657;DHT22;25337;51.478;7.510;2024-02-16T11:43:38;15.00;99.90
39657;DHT22;25337;51.478;7.510;2024-02-16T11:46:14;15.00;99.90
39657;DHT22;25337;51.478;7.510;2024-02-16T11:48:40;15.00;99.90
39657;DHT22;25337;51.478;7.510;2024-02-16T11:51:06;15.10;99.90
39657;DHT22;25337;51.478;7.510;2024-02-16T11:53:32;15.20;99.90
39657;DHT22;25337;51.478;7.510;2024-02-16T11:55:58;15.30;99.90
39657;DHT22;25337;51.478;7.510;2024-02-16T11:58:26;15.50;99.90
39657;DHT22;25337;51.478;7.510;2024-02-16T12:00:52;15.60;99.90
39657;DHT22;25337;51.478;7.510;2024-02-16T12:03:22;15.50;99.90
39657;DHT22;25337;51.478;7.510;2024-02-16T12:05:55;15.40;99.90
39657;DHT22;25337;51.478;7.510;2024-02-16T12:08:22;15.40;99.90
39657;DHT22;25337;51.478;7.510;2024-02-16T12:10:48;15.30;99.90
39657;DHT22;25337;51.478;7.510;2024-02-16T12:13:16;15.30;99.90
39657;DHT22;25337;51.478;7.510;2024-02-16T12:15:51;15.30;99.90
39657;DHT22;25337;51.478;7.510;2024-02-16T12:21:00;15.30;99.90
39657;DHT22;25337;51.478;7.510;2024-02-16T12:23:26;15.20;99.90
39657;DHT22;25337;51.478;7.510;2024-02-16T12:25:52;15.30;99.90
39657;DHT22;25337;51.478;7.510;2024-02-16T12:28:19;15.30;99.90
39657;DHT22;25337;51.478;7.510;2024-02-16T12:30:47;15.20;99.90
39657;DHT22;25337;51.478;7.510;2024-02-16T12:33:13;15.20;99.90
39657;DHT22;25337;51.478;7.510;2024-02-16T12:35:39;15.20;99.90
39657;DHT22;25337;51.478;7.510;2024-02-16T12:38:05;15.20;99.90
39657;DHT22;25337;51.478;7.510;2024-02-16T12:40:31;15.10;99.90
39657;DHT22;25337;51.478;7.510;2024-02-16T12:42:57;15.10;99.90
39657;DHT22;25337;51.478;7.510;2024-02-16T12:45:22;15.00;99.90
39657;DHT22;25337;51.478;7.510;2024-02-16T12:47:49;14.90;99.90
39657;DHT22;25337;51.478;7.510;2024-02-16T12:50:15;14.80;99.90
39657;DHT22;25337;51.478;7.510;2024-02-16T12:52:41;14.70;99.90
39657;DHT22;25337;51.478;7.510;2024-02-16T12:55:07;14.70;99.90
39657;DHT22;25337;51.478;7.510;2024-02-16T12:57:35;14.70;99.90
39657;DHT22;25337;51.478;7.510;2024-02-16T13:00:00;14.60;99.90
39657;DHT22;25337;51.478;7.510;2024-02-16T13:02:27;14.60;99.90
39657;DHT22;25337;51.478;7.510;2024-02-16T13:04:54;14.60;99.90
39657;DHT22;25337;51.478;7.510;2024-02-16T13:07:20;14.60;99.90
39657;DHT22;25337;51.478;7.510;2024-02-16T13:09:45;14.50;99.90
39657;DHT22;25337;51.478;7.510;2024-02-16T13:12:11;14.50;99.90
39657;DHT22;25337;51.478;7.510;2024-02-16T13:14:37;14.50;99.90
39657;DHT22;25337;51.478;7.510;2024-02-16T13:17:03;14.40;99.90
39657;DHT22;25337;51.478;7.510;2024-02-16T13:19:29;14.40;99.90
39657;DHT22;25337;51.478;7.510;2024-02-16T13:21:55;14.30;99.90
39657;DHT22;25337;51.478;7.510;2024-02-16T13:24:20;14.20;99.90
39657;DHT22;25337;51.478;7.510;2024-02-16T13:26:46;14.00;99.90
39657;DHT22;25337;51.478;7.510;2024-02-16T13:29:11;13.90;99.90
39657;DHT22;25337;51.478;7.510;2024-02-16T13:31:37;13.80;99.90
39657;DHT22;25337;51.478;7.510;2024-02-16T13:34:05;13.60;99.90
39657;DHT22;25337;51.478;7.510;2024-02-16T13:36:30;13.50;99.90
39657;DHT22;25337;51.478;7.510;2024-02-16T13:38:56;13.40;99.90
39657;DHT22;25337;51.478;7.510;2024-02-16T13:41:22;13.40;99.90
39657;DHT22;25337;51.478;7.510;2024-02-16T13:43:47;13.30;99.90
39657;DHT22;25337;51.478;7.510;2024-02-16T13:46:13;13.20;99.90
39657;DHT22;25337;51.478;7.510;2024-02-16T13:48:39;13.10;99.90
39657;DHT22;25337;51.478;7.510;2024-02-16T13:51:06;13.20;99.90
39657;DHT22;25337;51.478;7.510;2024-02-16T13:53:32;13.10;99.90
39657;DHT22;25337;51.478;7.510;2024-02-16T13:55:58;13.10;99.90
39657;DHT22;25337;51.478;7.510;2024-02-16T13:58:26;13.10;99.90
39657;DHT22;25337;51.478;7.510;2024-02-16T14:00:52;13.00;99.90
39657;DHT22;25337;51.478;7.510;2024-02-16T14:03:18;12.90;99.90
39657;DHT22;25337;51.478;7.510;2024-02-16T14:05:45;12.90;99.90
39657;DHT22;25337;51.478;7.510;2024-02-16T14:08:11;12.80;99.90
39657;DHT22;25337;51.478;7.510;2024-02-16T14:10:38;12.70;99.90
39657;DHT22;25337;51.478;7.510;2024-02-16T14:13:03;12.60;99.90
39657;DHT22;25337;51.478;7.510;2024-02-16T14:15:29;12.60;99.90
39657;DHT22;25337;51.478;7.510;2024-02-16T14:17:55;12.50;99.90
39657;DHT22;25337;51.478;7.510;2024-02-16T14:20:21;12.50;99.90
39657;DHT22;25337;51.478;7.510;2024-02-16T14:22:47;12.40;99.90
39657;DHT22;25337;51.478;7.510;2024-02-16T14:25:13;12.40;99.90
39657;DHT22;25337;51.478;7.510;2024-02-16T14:27:39;12.30;99.90
39657;DHT22;25337;51.478;7.510;2024-02-16T14:30:06;12.30;99.90
39657;DHT22;25337;51.478;7.510;2024-02-16T14:32:33;12.30;99.90
39657;DHT22;25337;51.478;7.510;2024-02-16T14:34:59;12.30;99.90
39657;DHT22;25337;51.478;7.510;2024-02-16T14:37:25;12.30;99.90
39657;DHT22;25337;51.478;7.510;2024-02-16T14:39:53;12.30;99.90
39657;DHT22;25337;51.478;7.510;2024-02-16T14:42:23;12.30;99.90
39657;DHT22;25337;51.478;7.510;2024-02-16T14:44:49;12.30;99.90
39657;DHT22;25337;51.478;7.510;2024-02-16T14:47:14;12.20;99.90
39657;DHT22;25337;51.478;7.510;2024-02-16T14:49:40;12.20;99.90
39657;DHT22;25337;51.478;7.510;2024-02-16T14:52:06;12.30;99.90
39657;DHT22;25337;51.478;7.510;2024-02-16T14:54:32;12.30;99.90
39657;DHT22;25337;51.478;7.510;2024-02-16T14:56:58;12.30;99.90
39657;DHT22;25337;51.478;7.510;2024-02-16T14:59:23;12.30;99.90
39657;DHT22;25337;51.478;7.510;2024-02-16T15:01:50;12.30;99.90
39657;DHT22;25337;51.478;7.510;2024-02-16T15:04:17;12.30;99.90
39657;DHT22;25337;51.478;7.510;2024-02-16T15:06:43;12.30;99.90
39657;DHT22;25337;51.478;7.510;2024-02-16T15:09:09;12.30;99.90
39657;DHT22;25337;51.478;7.510;2024-02-16T15:11:35;12.30;99.90
39657;DHT22;25337;51.478;7.510;2024-02-16T15:14:03;12.30;99.90
39657;DHT22;25337;51.478;7.510;2024-02-16T15:16:29;12.30;99.90
39657;DHT22;25337;51.478;7.510;2024-02-16T15:18:55;12.30;99.90
39657;DHT22;25337;51.478;7.510;2024-02-16T15:21:20;12.30;99.90
39657;DHT22;25337;51.478;7.510;2024-02-16T15:23:46;12.30;99.90
39657;DHT22;25337;51.478;7.510;2024-02-16T15:26:12;12.40;99.90
39657;DHT22;25337;51.478;7.510;2024-02-16T15:28:37;12.30;99.90
39657;DHT22;25337;51.478;7.510;2024-02-16T15:31:04;12.30;99.90